AirNav   Pilot Hours Calculator
 
 627 users online  

80C Lone Hickory Airport
Yadkinville, North Carolina, USA

GOING TO YADKINVILLE?


FAA INFORMATION EFFECTIVE 04 NOVEMBER 2021

Location

FAA Identifier: 80C
Lat/Long: 36-03-37.8520N 080-41-24.3600W
36-03.630867N 080-41.406000W
36.0605144,-80.6901000
(estimated)
Elevation: 1015 ft. / 309 m (estimated)
Variation: 06W (1995)
From city: 6 miles S of YADKINVILLE, NC
Time zone: UTC -4 (UTC -5 during Standard Time)
Zip code: 27055

Airport Operations

Airport use: Open to the public
Activation date: 12/1997
Control tower: no
ARTCC: ATLANTA CENTER
FSS: RALEIGH FLIGHT SERVICE STATION
NOTAMs facility: RDU (NOTAM-D service available)
Attendance: IREG
Wind indicator: yes
Segmented circle: no

Airport Communications

CTAF: 122.9

Nearby radio navigation aids

VOR radial/distance  VOR name  Freq  Var
BZMr073/29.1BARRETTS MOUNTAIN VOR/DME113.7506W
GSOr274/34.6GREENSBORO VORTAC116.2003W

 
NDB name  Hdg/Dist  Freq  Var  ID
ASHEE133/37.941007WJUH .--- ..- ....

Airport Services

Runway Information

Runway 16/34

Dimensions: 2000 x 60 ft. / 610 x 18 m
Surface: turf, in good condition
RUNWAY 16  RUNWAY 34
Latitude: 36-03.773400N36-03.488333N
Longitude: 080-41.508000W080-41.304000W
Elevation: 943.0 ft.1015.0 ft.
Traffic pattern: leftleft
Runway heading: 156 magnetic, 150 true336 magnetic, 330 true
Obstructions: 10 ft. road, 6 ft. from runway, 25 ft. left and right of centerline48 ft. trees, 299 ft. from runway, 115 ft. right of centerline, 6:1 slope to clear

Airport Ownership and Management from official FAA records

Ownership: Privately-owned
Owner: HAROLD DEAN HOLCOMB
1205 RUNWAY TRAIL
YADKINVILLE, NC 27055
Phone (336) 468-0641
Manager: HAROLD DEAN HOLCOMB
1205 RUNWAY TRAIL
YADKINVILLE, NC 27055
Phone (336) 468-0641

Airport Operational Statistics

Aircraft based on the field: 6
Single engine airplanes: 6
    
Aircraft operations: avg 46/month *
91% local general aviation
9% transient general aviation
* for 12-month period ending 16 August 2019

Additional Remarks

ACFT OPERATING FM PINEY RIDGE ARPT 1.3 MI NW.
PLINES 500-1000 FT N RY 16 THLD.
RY 16/34 HAS 3% GRADE; WINDS PERMITTING TKOF RY 16 LND RY 34.
NO FLIGHT TRAINING OR STUDENT PILOTS; ONLY EXPERIENCED PILOTS PERMITTED.
RY 16 DEPARTURES MAKE LEFT TURN FOR NOISE & OBSTRUCTION AVOIDANCE.
FOR CD CTC ATLANTA ARTCC AT 770-210-7692.
RUNWAY CLOSED TO TURBINE AIRCRAFT AND GROSS WEIGHTS GREATER THAN 5000 POUNDS EXCEPT WITH PRIOR PERMISSION (DUE TO SOFT TURF)

Instrument Procedures

There are no published instrument procedures at 80C.

Some nearby airports with instrument procedures:

KZEF - Elkin Municipal Airport (14 nm N)
8A7 - Twin Lakes Airport (14 nm SE)
KSVH - Statesville Regional Airport (22 nm SW)
KUKF - Wilkes County Airport (22 nm NW)
KINT - Smith Reynolds Airport (23 nm E)
 
Loc | Ops | Rwys | IFR | FBO | Links
Com | Nav | Svcs | Stats | Notes
Area around 80C (Lone Hickory Airport)
 
Road maps at: MapQuest Bing Google
 
Aerial photo
No photo
 
Sectional chart

 
Airport distance calculator
Flying to Lone Hickory Airport? Find the distance to fly.

From to 80C

Sunrise and sunset
Times for 01-Dec-2021
 Local
(UTC-5)
 Zulu
(UTC)
Morning civil twilight06:4811:48
Sunrise07:1612:16
Sunset17:0822:08
Evening civil twilight17:3622:36

Current date and time
Zulu (UTC)  01-Dec-2021 07:11:52
Local (UTC-5)  01-Dec-2021 02:11:52
 
METAR
KUKF 
22nm NW 
010655Z AUTO 00000KT 10SM CLR 05/00 A3018 RMK AO2
KSVH 
23nm SW 
010655Z AUTO 00000KT 10SM CLR 02/M02 A3012 RMK AO2 T00161020
KINT 
23nm E 
010654Z AUTO 00000KT 10SM CLR 04/M02 A3013 RMK AO2 SLP203 T00441022
KEXX 
25nm SE 
010655Z AUTO 00000KT 10SM CLR 00/M02 A3013 RMK AO2 T00001025
KMWK 
25nm N 
010655Z AUTO 00000KT 10SM 01/M02 A3015 RMK AO2 T00091016
KRUQ 
26nm S 
010655Z AUTO 00000KT 10SM CLR 00/M03 A3013 RMK AO2 T00001027
KGSO 
36nm E 
010654Z 27003KT 10SM CLR 06/M01 A3011 RMK AO2 SLP195 T00611011
KHKY 
38nm SW 
010653Z 00000KT 10SM CLR 02/M01 A3012 RMK AO2 SLP190 T00221006
KJQF 
41nm S 
010655Z AUTO 00000KT 10SM CLR 01/M01 A3015 RMK AO2
KGEV 
42nm NW 
010655Z AUTO 27005KT 10SM CLR 05/M03 A3014 RMK AO2 T00531033
TAF
KINT 
23nm E 
010520Z 0106/0206 00000KT P6SM FEW250 FM011700 18004KT P6SM BKN200 FM020400 22003KT P6SM SCT150
NOTAMs
Click for the latest NOTAMs
NOTAMs are issued by the DoD/FAA and will open in a separate window not controlled by AirNav.

 

 
 

Would you like to see your business listed on this page?

 If your business provides an interesting product or service to pilots, flight crews, aircraft, or users of the Lone Hickory Airport, you should consider listing it here.  To start the listing process, click on the button below
 
Add a business
 

Other Pages about Lone Hickory Airport

Update a link
 
Copyright © AirNav, LLC. All rights reserved. Privacy Policy  Contact